MENU

POPULAR MANGA

Loading...
Mob Psycho 100 CHAPTER LIST
  • Mob Psycho 100

    Alternative : モブサイコ100 (Japanese); 灵能百分百 (Chinese); One Hundred Mob Psycho; OneHundred MobPsycho; Mob 100 (English)
  • Author(s) : One,
  • Status : Ongoing
  • Last updated : Jun-06-2018 23:34:38 PM
  • TransGroup :
  • View : 3,131,357
  • Genres : Action, Comedy, Psychological, School life, Shounen, Slice of life, Supernatural,
  • Rating :
  •   Mangakakalot.com rate : 4.86/ 5 - 90 votes

Mob Psycho 100 summary:

Kageyama Shigeo (a.k.a. "Mob") is a 8th grader with psychic abilities. He could bend spoons and lift objects with his mind from a young age, but he slowly began to withhold from using his abilities in public due to the negative attention he kept receiving. Now, the only thing he wants is to become friends with a girl in his class, Tsubomi. With his psychic "mentor" (who has no psychic powers), he continues his daily life, attempting to realize his purpose in life.
Chapter name View Time uploaded
Chapter 109 48,727 12-04 21:11
Chapter 101.1 27,722 10-07 16:52
Chapter 100.17 14,982 12-04 21:20
Chapter 100.16 9,541 12-04 21:18
Chapter 100.15 8,659 12-04 21:17
Chapter 100.14 8,443 12-04 21:15
Chapter 100.13 13,984 12-04 21:13
Chapter 100.12 11,717 12-04 21:13
Chapter 100.11 11,411 12-04 21:13
Chapter 100.10 10,147 12-04 21:13
Chapter 100.9 12,731 10-07 16:48
Chapter 100.8 12,694 10-07 16:47
Chapter 100.7 17,088 08-25 15:57
Chapter 100.6 23,503 07-31 01:47
Chapter 100.5 21,671 07-18 06:47
Chapter 100.4 22,526 07-03 04:50
Chapter 100.2 19,814 06-20 11:06
Chapter 100.1 29,055 06-09 15:34
Chapter 100 : Ch.99.4 25,874 05-31 04:13
Chapter 99.9 : Ch.99.3 16,197 05-30 21:23
Chapter 99.7 : Ch 99.1 Mob 19,999 05-08 21:16
Chapter 99.6 : Ch. 98.12 17,096 04-17 02:15
Chapter 99.5 : c.98k 16,632 04-07 04:45
Chapter 99.4 : Ch.98.10 16,573 04-01 01:15
Chapter 99.3 : ch98.9 16,072 03-26 21:22
Chapter 99.2 : Ch.98.8 15,021 03-26 21:22
Chapter 99.1 : Ch.98.7 17,361 03-06 01:50
Chapter 99 : Ch.98.6 21,354 02-26 23:20
Chapter 98.9 : c.98 Omakes 16,254 02-20 02:47
Chapter 98.8 : Ch.98.5 16,470 02-13 23:33
Chapter 98.7 : Ch.98.4 15,397 02-10 11:17
Chapter 98.6 : Ch.98.3 15,695 02-06 01:17
Chapter 98.5 : Ch.98.2 16,097 02-06 01:17
Chapter 98.3 : Ch.97.13 17,322 01-08 22:16
Chapter 98.2 : Ch.97.12 17,242 12-26 00:31
Chapter 98.1 : Ch.97.11 17,398 12-19 01:32
Chapter 98 : Ch.97.10 26,691 12-18 18:31
Chapter 97.9 16,031 12-03 00:52
Chapter 97.8 15,662 11-28 11:37
Chapter 97.7 12,555 11-19 13:52
Chapter 97.6 11,607 11-05 20:37
Chapter 97.5 11,404 10-28 22:42
Chapter 97.4 11,547 10-22 19:07
Chapter 97.3 : [Nerieru-Scans] 11,517 10-22 18:27
Chapter 97.2 11,308 10-08 09:11
Chapter 97.1 : Dimple is 12,713 10-02 11:11
Chapter 96.7 9,864 10-01 17:31
Chapter 96.6 9,984 09-10 06:06
Chapter 96.5 10,107 09-02 03:37
Chapter 96.4 10,174 08-27 15:49
Chapter 96.3 10,146 08-04 23:43
Chapter 96.2 10,157 07-28 22:43
Chapter 96.1 : Peace 10,628 07-22 02:18
Chapter 96 10,178 07-22 02:18
Chapter 95.4 9,827 07-14 19:53
Chapter 95.3 9,679 07-12 14:25
Chapter 95.2 10,332 07-02 21:48
Chapter 95.1 10,455 06-25 10:52
Chapter 94.2 10,849 06-04 16:31
Chapter 94.1 : Carried Away 11,828 05-22 23:38
Chapter 93.3 11,090 05-22 23:38
Chapter 93.2 11,388 05-22 23:38
Chapter 93.1 12,064 04-24 00:02
Chapter 92.3 11,510 04-09 13:36
Chapter 92.2 12,119 04-01 00:34
Chapter 91.3 632 06-06 23:32
Chapter 91.2 702 06-06 23:32
Chapter 91.1 644 06-06 23:32
Chapter 91 : Ch.90.12 728 06-06 23:32
Chapter 90.9 : Ch.90.11 627 06-06 23:32
Chapter 90.8 : Ch.90.10 693 06-06 23:32
Chapter 90.7 : Ch.90.09 602 06-06 23:33
Chapter 90.6 : Ch.90.08 593 06-06 23:33
Chapter 90.5 : Ch.90.07 605 06-06 23:33
Chapter 90.4 : Ch.90.06 603 06-06 23:33
Chapter 90.3 : Ch.90.05 608 06-06 23:33
Chapter 90.2 : Ch.90.04 598 06-06 23:33
Chapter 90.1 : Ch.90.03 619 06-06 23:33
Chapter 89.6 : Ch.90.02 688 06-06 23:33
Chapter 89.5 : Ch.90.01 691 06-06 23:33
Chapter 89.4 562 06-06 23:33
Chapter 89.3 555 06-06 23:33
Chapter 89.2 583 06-06 23:33
Chapter 89.1 607 06-06 23:33
Chapter 88.3 583 06-06 23:33
Chapter 88.2 620 06-06 23:34
Chapter 88 13,043 01-20 09:29
Chapter 87.4 12,038 01-20 09:29
Chapter 87.3 11,973 01-20 09:29
Chapter 87.2 11,863 01-20 09:29
Chapter 87.1 12,315 01-20 09:29
Chapter 86.2 12,215 01-20 09:29
Chapter 86.1 12,364 01-20 09:29
Chapter 85.2 14,044 01-20 09:29
Chapter 84.2 13,182 01-20 09:29
Chapter 84.1 12,066 01-20 09:29
Chapter 83.2 12,238 01-20 09:29
Chapter 83.1 12,578 01-20 09:29
Chapter 82.2 12,514 01-20 09:29
Chapter 82 : Clash 13,582 01-20 09:29
Chapter 81.2 12,196 01-20 09:29
Chapter 81.1 12,721 01-20 09:29
Chapter 80.5 12,025 01-20 09:29
Chapter 80 : Inner Conflict 14,154 01-20 09:29
Chapter 79.2 12,494 01-20 09:29
Chapter 79.1 13,424 01-20 09:29
Chapter 78.5 : Read Online 12,113 01-20 09:29
Chapter 78.2 : Read Online 12,361 01-20 09:29
Chapter 78 : Gathering 13,176 01-20 09:29
Chapter 77.6 11,226 01-20 09:29
Chapter 77.5 12,143 01-20 09:29
Chapter 77 : Show It 13,427 01-20 09:29
Chapter 76 : Fire 13,175 01-20 09:29
Chapter 75 : Even So 12,938 01-20 09:29
Chapter 74.4 : Anthology 2 c.6 11,306 01-20 09:29
Chapter 74 : Forward 13,839 01-20 09:29
Chapter 73.5 : It's There 12,647 01-20 09:29
Chapter 73 : True Character 13,563 01-20 09:29
Chapter 72 : Finishing Off 13,158 01-20 09:29
Chapter 71.5 : Impulsive 12,869 01-20 09:29
Chapter 71 : Overhyped 13,266 01-20 09:29
Chapter 70 : The Lonely Whitey 13,422 01-20 09:29
Chapter 69 : He Doesn't Care 13,418 01-20 09:29
Chapter 68 13,832 01-20 09:29
Chapter 67.5 14,721 01-20 09:29
Chapter 67.3 : Rightness (3) 14,566 01-20 09:29
Chapter 67.2 : Rightness (2) 13,871 01-20 09:29
Chapter 67.1 : Rightness (1) 13,799 01-20 09:29
Chapter 66 : Voice 14,091 01-20 09:29
Chapter 65.5 22,576 01-20 09:29
Chapter 65.2 12,786 01-20 09:29
Chapter 65.1 : Friction 14,054 01-20 09:29
Chapter 65 14,351 01-20 09:29
Chapter 64.2 13,252 01-20 09:29
Chapter 64.1 : World 13,456 01-20 09:29
Chapter 63.3 13,282 01-20 09:29
Chapter 63.2 : Last Resort (2) 13,512 01-20 09:29
Chapter 63.1 : Last Resort 13,377 01-20 09:29
Chapter 62 : Morphing 13,555 01-20 09:29
Chapter 61.2 13,258 01-20 09:29
Chapter 61.1 : Evil Spirit 13,604 01-20 09:29
Chapter 60.5 12,602 01-20 09:29
Chapter 60 : True Identity 13,738 01-20 09:29
Chapter 59 : Big Mouth 12,970 01-20 09:29
Chapter 58.5 12,390 01-20 09:29
Chapter 58 : Creeping Danger 14,312 01-20 09:29
Chapter 57 : Roots 14,178 01-20 09:29
Chapter 56 : Solo Mission 14,213 01-20 09:29
Chapter 55 : Don't Know 14,646 01-20 09:29
Chapter 53 : Urban Legend 16,070 01-20 09:29
Chapter 52.5 14,383 01-20 09:29
Chapter 51.5 15,608 01-20 09:29
Chapter 50 : No Changes 17,384 01-20 09:29
Chapter 49 : Putting an End 13,585 01-20 09:29
Chapter 48 : Overwhelming 11,602 01-20 09:29
Chapter 47 : Rental 11,194 01-20 09:29
Chapter 46 : Master 11,028 01-20 09:29
Chapter 45 : Leader 8,600 01-20 09:29
Chapter 44 : Respect 7,920 01-20 09:29
Chapter 43 : Evil Aura 8,168 01-20 09:29
Chapter 42 : Phone Call 7,665 01-20 09:29
Chapter 41 : Who 7,374 01-20 09:29
Chapter 40 : Pyrokinetic 7,919 01-20 09:29
Chapter 39 : The Awakened 7,522 01-20 09:29
Chapter 37 : Team 7,309 01-20 09:29
Chapter 36 : Ways of Usage 7,154 01-20 09:29
Chapter 35 : Up Up 7,501 01-20 09:29
Chapter 34 : Claw 8,194 01-20 09:29
Chapter 33 : Ura vs Ura 8,195 01-20 09:29
Chapter 32 : Will to Destroy 7,400 01-20 09:29
Chapter 31 : Mature 7,325 01-20 09:29
Chapter 30 : Brotherly Love 7,749 01-20 09:29
Chapter 28 : Off-Tune 6,735 01-20 09:29
Chapter 27 : Discord 6,824 01-20 09:29
Chapter 26 : In High Spirits 7,198 01-20 09:29
Chapter 25 : O X Relationship 7,589 01-20 09:29
Chapter 24 : Hated 7,743 01-20 09:29
Chapter 22 : Awakening Lab 8,100 01-20 09:29
Chapter 20 : Student Council 8,323 01-20 09:29
Chapter 19 : Conclusion 8,157 01-20 09:29
Chapter 18 : Unidentifiable 8,353 01-20 09:29
Chapter 17.1 : The Fake Pot 8,326 01-20 09:29
Chapter 16 : Ochimusha 8,279 01-20 09:29
Chapter 14 : Same Kind 8,362 01-20 09:29
Chapter 11 : Idiot-Only Event 8,072 01-20 09:28
Chapter 10 : The Gifted One 8,472 01-20 09:28
Chapter 8 : Break Down 9,577 01-20 09:28
Chapter 7 : Sheeple 9,453 01-20 09:28
Chapter 6 : The Invitation 9,277 01-20 09:28
Chapter 4 : For Oneself 10,332 01-20 09:28
Chapter 2 : A Naive Question 16,923 01-20 09:28
Loading...